createdAt,value
2022-07-29T00:01:55.906Z,83.64
2022-07-29T00:05:18.085Z,83.26
2022-07-29T00:08:40.398Z,83.51
2022-07-29T00:12:03.290Z,82.98
2022-07-29T00:15:26.651Z,83.08
2022-07-29T00:18:48.837Z,83.75
2022-07-29T00:22:11.061Z,83.40
2022-07-29T00:25:32.889Z,83.34
2022-07-29T00:29:17.106Z,83.69
2022-07-29T00:32:38.997Z,83.93
2022-07-29T00:36:01.078Z,84.05
2022-07-29T00:39:23.186Z,84.12
2022-07-29T00:42:45.985Z,84.12
2022-07-29T00:46:08.077Z,84.48
2022-07-29T00:49:31.269Z,84.29
2022-07-29T00:52:54.442Z,84.21
2022-07-29T00:56:16.353Z,84.43
2022-07-29T00:59:38.219Z,84.36
2022-07-29T01:03:00.452Z,84.09
2022-07-29T01:06:26.991Z,84.23
2022-07-29T01:09:49.673Z,84.46
2022-07-29T01:13:12.902Z,84.61
2022-07-29T01:16:39.640Z,84.81
2022-07-29T01:20:09.054Z,84.59
2022-07-29T01:23:50.665Z,85.06
2022-07-29T01:27:30.671Z,85.41
2022-07-29T01:30:56.348Z,85.37
2022-07-29T01:34:26.080Z,85.70
2022-07-29T01:37:54.343Z,85.48
2022-07-29T01:41:19.802Z,85.59
2022-07-29T01:44:47.989Z,85.57
2022-07-29T01:48:17.586Z,85.64
2022-07-29T01:51:42.631Z,85.91
2022-07-29T01:55:10.287Z,85.51
2022-07-29T01:58:35.080Z,85.13
2022-07-29T02:02:00.889Z,85.35
2022-07-29T02:05:26.345Z,85.32
2022-07-29T02:08:50.193Z,84.95
2022-07-29T02:12:14.105Z,85.12
2022-07-29T02:15:38.043Z,85.11
2022-07-29T02:19:02.922Z,85.48
2022-07-29T02:22:29.133Z,85.36
2022-07-29T02:25:53.171Z,85.34
2022-07-29T02:29:17.600Z,85.32
2022-07-29T02:32:41.854Z,85.46
2022-07-29T02:36:05.174Z,85.65
2022-07-29T02:39:31.121Z,85.80
2022-07-29T02:42:53.319Z,85.72
2022-07-29T02:46:28.582Z,85.53
2022-07-29T02:49:57.453Z,85.71
2022-07-29T02:53:22.341Z,85.96
2022-07-29T02:56:48.278Z,85.92
2022-07-29T03:00:12.781Z,85.85
2022-07-29T03:03:38.637Z,86.07
2022-07-29T03:07:02.847Z,86.29
2022-07-29T03:10:25.802Z,86.42
2022-07-29T03:13:49.323Z,86.36
2022-07-29T03:17:12.221Z,86.50
2022-07-29T03:20:34.477Z,86.80
2022-07-29T03:23:56.849Z,86.77
2022-07-29T03:27:18.825Z,85.88
2022-07-29T03:30:42.044Z,84.59
2022-07-29T03:34:06.632Z,83.62
2022-07-29T03:37:28.762Z,82.90
2022-07-29T03:40:55.268Z,82.05
2022-07-29T03:44:19.136Z,80.70
2022-07-29T03:47:51.003Z,80.33
2022-07-29T03:51:13.332Z,80.25
2022-07-29T03:54:35.642Z,79.17
2022-07-29T03:58:00.024Z,78.83
2022-07-29T04:01:23.273Z,78.32
2022-07-29T04:04:46.785Z,77.38
2022-07-29T04:08:08.609Z,77.05
2022-07-29T04:11:30.437Z,76.30
2022-07-29T04:14:52.398Z,74.93
2022-07-29T04:18:14.527Z,74.93
2022-07-29T04:21:40.863Z,74.41
2022-07-29T04:25:04.283Z,73.93
2022-07-29T04:28:27.180Z,73.36
2022-07-29T04:31:48.965Z,73.19
2022-07-29T04:35:10.874Z,72.59
2022-07-29T04:38:34.454Z,72.04
2022-07-29T04:41:56.536Z,71.79
2022-07-29T04:45:22.607Z,72.10
2022-07-29T04:48:44.782Z,71.57
2022-07-29T04:52:07.756Z,71.71
2022-07-29T04:55:31.260Z,71.89
2022-07-29T04:58:53.579Z,70.91
2022-07-29T05:02:15.752Z,71.28
2022-07-29T05:05:37.571Z,72.38
2022-07-29T05:08:59.511Z,71.46
2022-07-29T05:12:22.824Z,70.71
2022-07-29T05:15:45.153Z,69.99
2022-07-29T05:19:09.707Z,70.66
2022-07-29T05:22:35.706Z,70.28
2022-07-29T05:25:57.889Z,70.94
2022-07-29T05:29:43.176Z,69.94
2022-07-29T05:33:02.957Z,69.54
2022-07-29T05:36:24.765Z,69.08
2022-07-29T05:39:47.393Z,69.30
2022-07-29T05:43:10.747Z,69.18
2022-07-29T05:46:33.983Z,69.14
2022-07-29T05:49:56.268Z,68.51
2022-07-29T05:53:19.882Z,68.44
2022-07-29T05:56:42.382Z,68.69
2022-07-29T06:00:05.293Z,68.76
2022-07-29T06:03:28.580Z,68.16
2022-07-29T06:06:50.713Z,67.70
2022-07-29T06:10:12.738Z,67.29
2022-07-29T06:13:34.566Z,66.61
2022-07-29T06:16:56.568Z,66.97
2022-07-29T06:20:20.213Z,66.62
2022-07-29T06:23:49.149Z,67.03
2022-07-29T06:27:10.909Z,67.06
2022-07-29T06:30:33.010Z,67.07
2022-07-29T06:33:55.249Z,65.98
2022-07-29T06:37:18.837Z,64.35
2022-07-29T06:41:02.269Z,64.84
2022-07-29T06:44:24.226Z,64.06
2022-07-29T06:47:45.978Z,64.57
2022-07-29T06:51:08.884Z,64.51
2022-07-29T06:54:32.146Z,63.82
2022-07-29T06:57:54.108Z,63.79
2022-07-29T07:01:16.048Z,59.97
2022-07-29T07:04:37.965Z,60.45
2022-07-29T07:08:02.975Z,59.95
2022-07-29T07:11:26.282Z,61.19
2022-07-29T07:14:49.340Z,60.96
2022-07-29T07:18:11.151Z,62.33
2022-07-29T07:21:34.716Z,61.88
2022-07-29T07:24:58.159Z,61.32
2022-07-29T07:28:24.610Z,60.24
2022-07-29T07:31:47.202Z,60.09
2022-07-29T07:35:10.885Z,60.38
2022-07-29T07:38:32.863Z,61.60
2022-07-29T07:41:54.951Z,59.54
2022-07-29T07:45:18.686Z,61.26
2022-07-29T07:48:40.494Z,62.13
2022-07-29T07:52:02.323Z,62.18
2022-07-29T07:55:24.429Z,63.64
2022-07-29T07:58:46.516Z,62.90
2022-07-29T08:02:11.737Z,61.78
2022-07-29T08:05:33.500Z,60.46
2022-07-29T08:08:56.425Z,60.33
2022-07-29T08:12:18.717Z,58.62
2022-07-29T08:15:42.549Z,60.18
2022-07-29T08:19:06.014Z,60.83
2022-07-29T08:22:28.125Z,61.50
2022-07-29T08:25:50.497Z,62.64
2022-07-29T08:29:17.069Z,62.57
2022-07-29T08:32:53.745Z,62.80
2022-07-29T08:36:17.487Z,63.02
2022-07-29T08:39:39.780Z,62.55
2022-07-29T08:43:07.201Z,62.47
2022-07-29T08:46:29.250Z,62.37
2022-07-29T08:49:51.369Z,61.70
2022-07-29T08:53:17.029Z,62.45
2022-07-29T08:56:40.562Z,61.25
2022-07-29T09:00:08.064Z,60.81
2022-07-29T09:03:36.259Z,60.17
2022-07-29T09:07:02.873Z,58.81
2022-07-29T09:10:26.810Z,59.41
2022-07-29T09:13:50.660Z,59.60
2022-07-29T09:17:12.783Z,59.18
2022-07-29T09:20:48.588Z,58.63
2022-07-29T09:24:12.343Z,59.16
2022-07-29T09:27:36.921Z,59.06
2022-07-29T09:31:00.321Z,59.47
2022-07-29T09:34:27.505Z,59.41
2022-07-29T09:37:52.291Z,57.02
2022-07-29T09:41:15.222Z,56.24
2022-07-29T09:44:49.382Z,55.24
2022-07-29T09:48:18.925Z,55.51
2022-07-29T09:51:42.512Z,56.34
2022-07-29T09:55:08.477Z,57.07
2022-07-29T09:58:30.675Z,57.21
2022-07-29T10:01:55.444Z,57.11
2022-07-29T10:05:23.036Z,57.59
2022-07-29T10:08:45.122Z,57.19
2022-07-29T10:12:10.224Z,56.95
2022-07-29T10:15:34.357Z,56.63
2022-07-29T10:18:57.805Z,56.66
2022-07-29T10:22:50.463Z,57.19
2022-07-29T10:26:02.821Z,60.57
2022-07-29T10:29:25.096Z,60.96
2022-07-29T10:33:02.458Z,60.91
2022-07-29T10:36:50.625Z,61.68
2022-07-29T10:40:41.827Z,57.92
2022-07-29T10:44:16.096Z,59.04
2022-07-29T10:47:39.437Z,56.16
2022-07-29T10:51:04.162Z,55.84
2022-07-29T10:54:51.260Z,56.71
2022-07-29T10:58:19.019Z,54.62
2022-07-29T11:01:41.080Z,54.20
2022-07-29T11:05:13.782Z,55.20
2022-07-29T11:08:35.871Z,55.13
2022-07-29T11:11:59.622Z,55.03
2022-07-29T11:15:25.258Z,55.82
2022-07-29T11:19:29.790Z,54.38
2022-07-29T11:23:21.860Z,53.58
2022-07-29T11:26:44.690Z,53.30
2022-07-29T11:30:10.803Z,52.79
2022-07-29T11:33:54.478Z,50.68
2022-07-29T11:41:23.969Z,52.91
2022-07-29T11:45:08.475Z,51.55
2022-07-29T11:48:46.152Z,52.56
2022-07-29T11:52:08.331Z,49.71
2022-07-29T11:55:36.996Z,50.64
2022-07-29T11:59:15.310Z,51.47
2022-07-29T12:02:48.331Z,50.65
2022-07-29T12:06:18.116Z,52.08
2022-07-29T12:07:03.218Z,52.32
2022-07-29T12:09:41.631Z,52.23
2022-07-29T12:13:03.674Z,50.45
2022-07-29T12:16:29.725Z,51.81
2022-07-29T12:19:51.823Z,51.52
2022-07-29T12:23:18.867Z,52.45
2022-07-29T12:26:51.883Z,51.82
2022-07-29T12:30:17.464Z,52.27
2022-07-29T12:33:39.862Z,52.11
2022-07-29T12:37:03.003Z,50.91
2022-07-29T12:40:27.008Z,51.43
2022-07-29T12:43:56.075Z,49.62
2022-07-29T12:47:19.348Z,50.26
2022-07-29T12:50:59.904Z,49.64
2022-07-29T12:54:22.023Z,49.57
2022-07-29T12:57:49.869Z,49.73
2022-07-29T13:01:16.953Z,48.79
2022-07-29T13:04:39.356Z,46.40
2022-07-29T13:08:20.238Z,45.69
2022-07-29T13:11:48.666Z,46.54
2022-07-29T13:15:19.167Z,45.83
2022-07-29T13:18:42.381Z,45.73
2022-07-29T13:22:04.781Z,46.40
2022-07-29T13:25:28.356Z,47.38
2022-07-29T13:28:50.854Z,46.62
2022-07-29T13:32:15.700Z,46.65
2022-07-29T13:35:39.907Z,44.85
2022-07-29T13:39:03.783Z,45.94
2022-07-29T13:42:26.540Z,46.96
2022-07-29T13:45:48.492Z,46.46
2022-07-29T13:49:12.468Z,46.39
2022-07-29T13:52:34.522Z,46.75
2022-07-29T13:55:56.945Z,46.95
2022-07-29T13:59:19.203Z,46.86
2022-07-29T14:02:41.237Z,46.33
2022-07-29T14:06:04.404Z,47.95
2022-07-29T14:09:26.591Z,47.62
2022-07-29T14:12:48.606Z,48.33
2022-07-29T14:16:10.639Z,47.89
2022-07-29T14:19:36.441Z,48.93
2022-07-29T14:23:00.406Z,48.36
2022-07-29T14:26:24.191Z,47.67
2022-07-29T14:29:46.281Z,47.43
2022-07-29T14:33:08.011Z,48.16
2022-07-29T14:36:30.063Z,48.68
2022-07-29T14:39:55.069Z,48.09
2022-07-29T14:43:17.220Z,46.92
2022-07-29T14:46:39.196Z,47.17
2022-07-29T14:50:01.054Z,47.02
2022-07-29T14:53:23.154Z,46.16
2022-07-29T14:56:47.161Z,45.60
2022-07-29T15:00:10.882Z,46.99
2022-07-29T15:03:33.866Z,45.06
2022-07-29T15:06:55.892Z,43.68
2022-07-29T15:10:18.645Z,45.04
2022-07-29T15:13:42.385Z,44.63
2022-07-29T15:17:04.959Z,46.50
2022-07-29T15:20:28.229Z,47.66
2022-07-29T15:23:50.447Z,47.87
2022-07-29T15:27:15.186Z,48.66
2022-07-29T15:30:41.938Z,48.47
2022-07-29T15:34:06.285Z,49.41
2022-07-29T15:37:48.453Z,49.10
2022-07-29T15:41:11.018Z,49.92
2022-07-29T15:44:33.110Z,50.57
2022-07-29T15:47:56.638Z,50.87
2022-07-29T15:51:18.567Z,50.37
2022-07-29T15:54:41.887Z,51.35
2022-07-29T15:58:05.388Z,51.71
2022-07-29T16:01:27.286Z,51.93
2022-07-29T16:04:50.774Z,52.07
2022-07-29T16:08:12.793Z,52.34
2022-07-29T16:11:35.034Z,52.34
2022-07-29T16:14:59.369Z,52.08
2022-07-29T16:18:21.534Z,52.00
2022-07-29T16:21:56.977Z,52.41
2022-07-29T16:25:29.600Z,52.10
2022-07-29T16:29:00.975Z,53.00
2022-07-29T16:32:23.173Z,52.66
2022-07-29T16:35:45.042Z,53.08
2022-07-29T16:39:08.511Z,52.46
2022-07-29T16:42:45.944Z,52.88
2022-07-29T16:46:09.373Z,53.60
2022-07-29T16:49:35.871Z,53.21
2022-07-29T16:52:58.327Z,53.34
2022-07-29T16:56:21.549Z,52.45
2022-07-29T16:59:43.744Z,51.48
2022-07-29T17:03:06.678Z,51.96
2022-07-29T17:06:29.589Z,52.05
2022-07-29T17:09:55.333Z,52.31
2022-07-29T17:13:19.674Z,52.55
2022-07-29T17:16:41.495Z,52.56
2022-07-29T17:20:03.582Z,52.64
2022-07-29T17:23:25.638Z,51.97
2022-07-29T17:26:47.587Z,51.04
2022-07-29T17:30:11.699Z,50.60
2022-07-29T17:33:33.490Z,50.23
2022-07-29T17:36:55.369Z,49.82
2022-07-29T17:40:17.521Z,49.05
2022-07-29T17:43:39.519Z,49.07
2022-07-29T17:47:03.453Z,49.12
2022-07-29T17:50:25.482Z,48.70
2022-07-29T17:53:47.373Z,49.40
2022-07-29T17:57:09.249Z,49.77
2022-07-29T18:00:31.351Z,50.61
2022-07-29T18:03:58.465Z,52.02
2022-07-29T18:07:22.143Z,52.86
2022-07-29T18:10:44.260Z,53.34
2022-07-29T18:14:06.152Z,53.30
2022-07-29T18:17:48.401Z,53.86
2022-07-29T18:21:11.671Z,54.44
2022-07-29T18:24:33.334Z,54.63
2022-07-29T18:28:00.146Z,55.38
2022-07-29T18:31:22.668Z,55.76
2022-07-29T18:34:44.358Z,56.11
2022-07-29T18:38:08.504Z,56.92
2022-07-29T18:41:30.481Z,57.25
2022-07-29T18:44:54.916Z,57.31
2022-07-29T18:48:16.678Z,58.28
2022-07-29T18:51:39.288Z,58.49
2022-07-29T18:55:03.836Z,58.71
2022-07-29T18:58:25.706Z,59.36
2022-07-29T19:01:48.685Z,59.43
2022-07-29T19:05:11.758Z,59.78
2022-07-29T19:08:33.965Z,60.25
2022-07-29T19:12:01.854Z,60.67
2022-07-29T19:15:25.626Z,60.79
2022-07-29T19:18:48.135Z,61.03
2022-07-29T19:22:10.295Z,61.40
2022-07-29T19:25:32.155Z,61.39
2022-07-29T19:28:58.849Z,61.75
2022-07-29T19:32:25.042Z,62.41
2022-07-29T19:35:52.838Z,62.16
2022-07-29T19:39:16.956Z,63.09
2022-07-29T19:42:39.259Z,63.53
2022-07-29T19:46:02.678Z,63.96
2022-07-29T19:49:24.846Z,64.54
2022-07-29T19:52:47.717Z,64.73
2022-07-29T19:56:09.573Z,65.35
2022-07-29T19:59:32.173Z,65.74
2022-07-29T20:02:57.437Z,66.59
2022-07-29T20:06:19.440Z,66.90
2022-07-29T20:09:42.032Z,66.90
2022-07-29T20:13:04.279Z,67.09
2022-07-29T20:16:26.295Z,67.13
2022-07-29T20:19:49.742Z,67.58
2022-07-29T20:23:12.096Z,68.01
2022-07-29T20:26:34.440Z,67.64
2022-07-29T20:29:56.593Z,68.06
2022-07-29T20:33:18.848Z,68.01
2022-07-29T20:36:42.461Z,68.72
2022-07-29T20:40:04.880Z,67.95
2022-07-29T20:43:27.746Z,67.98
2022-07-29T20:46:49.531Z,68.18
2022-07-29T20:50:11.949Z,68.54
2022-07-29T20:53:35.166Z,68.75
2022-07-29T20:56:58.081Z,68.62
2022-07-29T21:00:20.212Z,69.19
2022-07-29T21:03:42.128Z,69.01
2022-07-29T21:07:04.420Z,69.28
2022-07-29T21:10:28.537Z,69.04
2022-07-29T21:13:50.293Z,69.23
2022-07-29T21:17:12.176Z,69.66
2022-07-29T21:20:33.990Z,70.28
2022-07-29T21:23:55.868Z,70.18
2022-07-29T21:27:38.385Z,70.59
2022-07-29T21:31:02.605Z,70.60
2022-07-29T21:34:24.691Z,70.80
2022-07-29T21:37:46.804Z,71.45
2022-07-29T21:41:10.889Z,71.41
2022-07-29T21:44:35.541Z,72.11
2022-07-29T21:47:57.459Z,71.94
2022-07-29T21:51:19.273Z,72.39
2022-07-29T21:54:41.047Z,72.49
2022-07-29T21:58:03.990Z,72.22
2022-07-29T22:01:27.598Z,73.04
2022-07-29T22:04:50.810Z,73.29
2022-07-29T22:08:13.640Z,73.57
2022-07-29T22:11:36.866Z,73.81
2022-07-29T22:14:59.667Z,73.85
2022-07-29T22:18:23.094Z,74.36
2022-07-29T22:21:45.188Z,74.91
2022-07-29T22:25:08.400Z,74.76
2022-07-29T22:28:30.522Z,74.54
2022-07-29T22:31:52.376Z,75.13
2022-07-29T22:35:15.997Z,75.38
2022-07-29T22:38:38.182Z,75.67
2022-07-29T22:42:00.161Z,75.98
2022-07-29T22:45:22.690Z,75.94
2022-07-29T22:48:44.673Z,76.43
2022-07-29T22:52:08.019Z,76.56
2022-07-29T22:55:30.042Z,76.39
2022-07-29T22:58:53.498Z,76.85
2022-07-29T23:02:15.442Z,76.77
2022-07-29T23:05:37.865Z,76.94
2022-07-29T23:09:01.231Z,77.42
2022-07-29T23:12:22.914Z,77.38
2022-07-29T23:15:44.858Z,77.78
2022-07-29T23:19:06.569Z,77.79
2022-07-29T23:22:28.341Z,78.28
2022-07-29T23:25:51.843Z,78.37
2022-07-29T23:29:14.306Z,78.88
2022-07-29T23:32:36.254Z,79.26
2022-07-29T23:35:58.059Z,79.40
2022-07-29T23:39:19.986Z,79.61
2022-07-29T23:42:43.929Z,79.49
2022-07-29T23:46:06.580Z,79.75
2022-07-29T23:49:29.127Z,79.78
2022-07-29T23:52:50.986Z,79.72
2022-07-29T23:56:13.557Z,79.64
2022-07-29T23:59:37.332Z,79.69
